Impacts METAR Board
IDs:

KFLL - Ft Lauderdale-Hollyw, FL, US

Updated at: 0600 UTC 11 Dec 2018
Potential Impact None Slight Moderate High
Time 10/18Z 10/19Z 10/20Z 10/21Z 10/22Z 10/23Z 11/00Z 11/01Z 11/02Z 11/03Z 11/04Z 11/05Z 11/06Z
Temp70 71 70 70 68 66 65 63 62 60 59 58 57
Dewpt60 60 59 59 59 58 58 57 56 56 55 53 53
Altim30.04 30.02 30.02 30.03 30.04 30.07 30.09 30.11 30.13 30.14 30.14 30.15 30.15
VIS10 10 10 10 10 10 10 10 10 10 10 10 10
CIG-- 35 55 250 250 250 250 250 200 250 250 250 250
CoverSCTBKNOVCOVCBKNBKNBKNBKNOVCBKNBKNOVCBKN
FltCatVFRVFRVFRVFRVFRVFRVFRVFRVFRVFRVFRVFRVFR
WX--------------------------
WDir290310300310320330330340350330340330320
WSpd10 12 9 7 9 6 4 7 9 5 7 7 5
WGst-- 17 -- -- -- -- -- -- -- -- -- -- --
Raw hourly METARs
KFLL 101753Z 29010KT 10SM SCT035 21/16 A3004 RMK AO2 SLP173 T02110156 10222 20194 58009
KFLL 101853Z 31012G17KT 10SM BKN035 BKN055 22/16 A3002 RMK AO2 SLP167 T02170156
KFLL 101953Z 30009KT 10SM FEW038 OVC055 21/15 A3002 RMK AO2 SLP166 T02110150
KFLL 102053Z COR 31007KT 280V340 10SM FEW046 FEW060 OVC250 21/15 A3003 RMK AO2 SLP168 T02110150 55004
KFLL 102153Z 32009KT 10SM FEW040 SCT190 BKN250 20/15 A3004 RMK AO2 SLP173 T02000150
KFLL 102253Z 33006KT 10SM FEW040 FEW080 SCT190 BKN250 19/14 A3007 RMK AO2 SLP181 T01890144
KFLL 102353Z 33004KT 10SM FEW038 FEW080 SCT190 BKN250 18/14 A3009 RMK AO2 SLP188 T01830144 10222 20183 53020
KFLL 110053Z 34007KT 10SM FEW035 FEW080 SCT190 BKN250 17/14 A3011 RMK AO2 SLP196 T01720139
KFLL 110153Z 35009KT 10SM OVC200 17/13 A3013 RMK AO2 SLP201 T01670133
KFLL 110253Z 33005KT 10SM FEW190 BKN250 16/13 A3014 RMK AO2 SLP207 T01560133 51019
KFLL 110353Z 34007KT 10SM FEW190 BKN250 15/13 A3014 RMK AO2 SLP207 T01500128
KFLL 110453Z 33007KT 10SM FEW030 OVC250 14/12 A3015 RMK AO2 SLP209 T01440117 402220144
KFLL 110553Z 32005KT 10SM FEW030 BKN250 14/12 A3015 RMK AO2 SLP210 T01390117 10183 20139 53003



Page loaded:  06:22 UTC  |   10:22 PM Pacific  |   11:22 PM Mountain  |   12:22 AM Central  |   01:22 AM Eastern

 

ADVISORIES

FORECASTS

FORECASTS

OBSERVATIONS

USER TOOLS

ABOUT US